Birch River, West Virginia
Current Conditions -  °F | °C
As of 6:15 PM on Thursday 27 Nov 2014 (Local Time) from KW22 Reporting Station
Light Snow Light Snow  
Wind Chill: 19°   Ceiling: 100
Heat Index: 28°   Visibility: 2.5mi
Dew Point: 28°   Wind: 10mph
Humidity: 100%   Direction: 260°W
Pressure: 30.18"   Gusts: 18mph
Location:  38.5°N, 80.75°W
Report Text: KW22 272315Z AUTO 26009G16KT 2 1/2SM -SN BKN001 BKN005 OVC009 M02/M02 A3018 RMK AO2
Loading
Personal Weather Stations






























Interactive Weather Map New forecast layout! Learn more

10-Day Weather Forecast

Advertisements
Track Severe Weather on mobile